PDT,Max TemperatureF,Mean TemperatureF,Min TemperatureF,Max Dew PointF,MeanDew PointF,Min DewpointF,Max Humidity, Mean Humidity, Min Humidity, Max Sea Level PressureIn, Mean Sea Level PressureIn, Min Sea Level PressureIn, Max VisibilityMiles, Mean VisibilityMiles, Min VisibilityMiles, Max Wind SpeedMPH, Mean Wind SpeedMPH, Max Gust SpeedMPH,PrecipitationIn, CloudCover, Events, WindDirDegrees
2013-8-1,68,63,57,56,54,53,93,78,63,30.12,30.09,30.06,10,10,7,13,4,18,T,8,,233
2013-8-2,76,68,59,55,53,50,80,62,43,30.15,30.11,30.08,10,10,10,15,3,18,T,6,,333
2013-8-3,85,70,54,58,55,53,93,64,34,30.11,30.05,29.96,10,10,10,14,6,18,0.00,3,,3
2013-8-4,92,75,57,59,57,53,87,58,28,30.01,29.96,29.88,10,10,10,13,4,18,0.00,0,,344
2013-8-5,93,76,58,58,56,53,93,61,28,30.00,29.95,29.88,10,10,10,12,3,18,0.00,0,,354
2013-8-6,95,76,57,54,46,36,80,47,13,29.98,29.93,29.87,10,10,10,13,4,18,0.00,0,,358
2013-8-7,83,70,56,55,52,48,77,54,31,30.03,29.99,29.93,10,10,10,15,4,17,0.00,0,,242
2013-8-8,85,71,56,60,55,52,86,62,37,30.06,29.98,29.89,10,10,10,15,6,21,0.00,1,,6
2013-8-9,85,75,64,60,56,54,73,55,37,29.93,29.89,29.82,10,10,10,16,5,23,T,1,Rain-Thunderstorm,354
2013-8-10,82,71,59,65,58,55,93,69,45,30.04,29.98,29.91,10,10,10,12,4,16,0.02,3,Rain-Thunderstorm,238
2013-8-11,77,67,57,58,56,55,93,74,54,30.08,30.04,29.98,10,10,10,9,3,12,0.00,5,,268
2013-8-12,78,69,60,57,55,51,84,64,43,30.07,30.04,30.00,10,10,10,7,2,9,0.00,6,,233
2013-8-13,86,68,50,55,50,45,89,57,25,30.11,30.02,29.91,10,10,10,12,3,17,0.00,1,,36
2013-8-14,87,71,54,61,53,45,86,56,25,29.96,29.94,29.91,10,10,10,16,6,18,0.00,0,,210
2013-8-15,80,73,65,65,62,58,81,70,58,29.96,29.94,29.93,10,10,10,9,4,12,T,5,Rain,253
2013-8-16,87,77,66,64,61,53,87,64,40,30.04,29.98,29.96,10,10,10,14,3,17,T,5,,294
2013-8-17,86,71,55,58,56,52,93,67,40,30.09,30.05,30.00,10,10,10,13,4,17,0.00,1,,267
2013-8-18,87,72,56,58,56,54,93,64,35,30.13,30.08,30.01,10,10,10,12,3,17,0.00,1,,337
2013-8-19,87,74,60,58,56,52,84,58,32,30.11,30.07,30.01,10,10,10,16,6,18,0.00,0,,339
2013-8-20,86,69,52,54,50,43,83,53,23,30.13,30.05,29.96,10,10,10,21,10,29,0.00,0,,7
2013-8-21,91,74,56,54,52,50,77,52,26,29.99,29.92,29.82,10,10,10,13,5,15,0.00,0,,353
2013-8-22,86,73,59,58,55,53,78,56,34,29.90,29.87,29.83,10,10,10,9,2,,T,2,Rain,231
2013-8-23,78,67,55,57,55,54,93,69,45,29.95,29.91,29.87,10,10,10,16,6,18,0.00,5,,209
2013-8-24,79,70,60,57,55,52,90,66,42,29.91,29.89,29.84,10,10,10,12,2,25,0.00,6,,310
2013-8-25,71,64,56,61,56,51,86,74,61,29.93,29.91,29.89,10,10,10,9,3,12,0.07,5,Rain,268
2013-8-26,82,70,58,60,55,48,93,64,35,29.96,29.92,29.90,10,10,9,21,7,28,T,5,Rain,189
2013-8-27,85,73,60,61,57,55,90,65,40,29.95,29.86,29.78,10,10,10,18,3,23,0.00,4,,237
2013-8-28,82,71,59,63,60,58,97,71,45,29.90,29.86,29.83,10,10,10,13,2,14,0.02,2,Rain,252
2013-8-29,80,73,65,66,63,60,100,78,56,30.07,29.93,29.85,10,10,10,21,6,26,0.17,7,Rain,187
2013-8-30,85,73,61,63,58,54,93,65,37,30.14,30.08,30.02,10,10,10,12,3,15,T,4,Rain,26
2013-8-31,91,73,55,58,56,54,93,61,29,30.02,29.91,29.81,10,10,10,10,3,14,0.00,0,,318